Time;durP1;ratioP1;P1;durP2;ratioP2;P2;SDS_P1;SDS_P2;PMS_P1;PMS_P2;Temp;Humidity;BMP_temperature;BMP_pressure;BME280_temperature;BME280_humidity;BME280_pressure;Samples;Min_cycle;Max_cycle;Signal;HPM_P1;HPM_P2
2021/09/10 00:01:36;;;;;;;16.03;14.27;;;16.20;99.90;;;;;;5070082;28;20443;-65
2021/09/10 00:04:04;;;;;;;16.37;14.67;;;16.10;99.90;;;;;;5070595;28;20463;-65
2021/09/10 00:06:31;;;;;;;16.63;14.53;;;16.00;99.90;;;;;;5070626;28;20459;-66
2021/09/10 00:08:59;;;;;;;19.43;14.80;;;16.00;99.90;;;;;;5070523;28;20576;-66
2021/09/10 00:11:26;;;;;;;15.97;14.47;;;16.00;99.90;;;;;;5070462;28;20457;-66
2021/09/10 00:13:53;;;;;;;18.83;14.80;;;15.90;99.90;;;;;;5070365;28;20477;-67
2021/09/10 00:16:20;;;;;;;15.43;13.93;;;15.80;99.90;;;;;;5070667;28;20454;-66
2021/09/10 00:18:47;;;;;;;16.83;15.23;;;15.80;99.90;;;;;;5070423;28;20446;-66
2021/09/10 00:21:15;;;;;;;16.20;14.60;;;15.80;99.90;;;;;;5070331;28;20455;-66
2021/09/10 00:23:42;;;;;;;15.23;13.63;;;15.70;99.90;;;;;;5069626;28;20443;-66
2021/09/10 00:26:09;;;;;;;15.20;13.63;;;15.70;99.90;;;;;;5070347;28;20459;-66
2021/09/10 00:28:36;;;;;;;18.37;15.20;;;15.60;99.90;;;;;;5069817;28;20493;-66
2021/09/10 00:31:03;;;;;;;16.40;14.70;;;15.60;99.90;;;;;;5069829;28;20443;-66
2021/09/10 00:33:30;;;;;;;20.87;15.13;;;15.60;99.90;;;;;;5069742;28;20964;-67
2021/09/10 00:35:57;;;;;;;16.23;14.63;;;15.60;99.90;;;;;;5070082;28;20446;-66
2021/09/10 00:38:25;;;;;;;15.70;14.10;;;15.60;99.90;;;;;;5070241;28;20453;-66
2021/09/10 00:40:52;;;;;;;16.47;14.87;;;15.60;99.90;;;;;;5070375;28;20550;-66
2021/09/10 00:43:19;;;;;;;17.40;15.90;;;15.60;99.90;;;;;;5070018;28;20447;-66
2021/09/10 00:45:47;;;;;;;18.23;14.10;;;15.60;99.90;;;;;;5070061;28;21049;-66
2021/09/10 00:48:17;;;;;;;16.10;14.70;;;15.60;99.90;;;;;;5070410;28;20855;-66
2021/09/10 00:50:44;;;;;;;14.67;13.37;;;15.60;99.90;;;;;;5070359;28;20477;-66
2021/09/10 00:53:12;;;;;;;16.30;14.43;;;15.60;99.90;;;;;;5069757;28;20451;-66
2021/09/10 00:55:42;;;;;;;15.20;13.80;;;15.60;99.90;;;;;;5070207;28;21012;-65
2021/09/10 00:58:09;;;;;;;19.07;13.90;;;15.60;99.90;;;;;;5070337;28;20542;-65
2021/09/10 01:00:36;;;;;;;19.30;14.93;;;15.60;99.90;;;;;;5070109;28;20453;-64
2021/09/10 01:03:04;;;;;;;15.20;13.70;;;15.50;99.90;;;;;;5069839;28;20453;-65
2021/09/10 01:05:30;;;;;;;18.07;14.90;;;15.50;99.90;;;;;;5071946;28;20482;-66
2021/09/10 01:07:58;;;;;;;16.33;14.07;;;15.50;99.90;;;;;;5074507;28;20542;-65
2021/09/10 01:10:27;;;;;;;19.10;14.63;;;15.50;99.90;;;;;;5074542;28;20455;-66
2021/09/10 01:12:55;;;;;;;23.20;15.20;;;15.50;99.90;;;;;;5073687;28;20458;-66
2021/09/10 01:15:23;;;;;;;18.53;15.00;;;15.40;99.90;;;;;;5074482;28;20469;-66
2021/09/10 01:17:51;;;;;;;18.50;15.13;;;15.40;99.90;;;;;;5074335;28;20884;-66
2021/09/10 01:20:18;;;;;;;17.47;15.87;;;15.30;99.90;;;;;;5074102;28;20946;-66
2021/09/10 01:22:44;;;;;;;19.13;16.10;;;15.20;99.90;;;;;;5073629;28;20529;-66
2021/09/10 01:25:14;;;;;;;17.30;15.60;;;15.30;99.90;;;;;;5074107;28;20465;-66
2021/09/10 01:27:44;;;;;;;16.33;14.73;;;15.20;99.90;;;;;;5073776;28;20441;-66
2021/09/10 01:30:12;;;;;;;17.27;15.57;;;15.20;99.90;;;;;;5073645;28;20482;-66
2021/09/10 01:32:39;;;;;;;17.80;15.93;;;15.20;99.90;;;;;;5073382;28;20457;-66
2021/09/10 01:35:07;;;;;;;16.73;15.03;;;15.30;99.90;;;;;;5073430;28;20466;-67
2021/09/10 01:37:34;;;;;;;17.70;15.80;;;15.40;99.90;;;;;;5073561;28;20439;-66
2021/09/10 01:40:02;;;;;;;17.47;15.87;;;15.40;99.90;;;;;;5073417;28;20447;-65
2021/09/10 01:42:30;;;;;;;17.73;15.93;;;15.40;99.90;;;;;;5073079;28;20542;-67
2021/09/10 01:44:57;;;;;;;16.17;14.57;;;15.30;99.90;;;;;;5073179;28;20467;-68
2021/09/10 01:47:24;;;;;;;17.80;16.10;;;15.30;99.90;;;;;;5073459;28;20450;-65
2021/09/10 01:49:51;;;;;;;21.83;15.43;;;15.30;99.90;;;;;;5073094;28;20487;-65
2021/09/10 01:52:18;;;;;;;21.40;15.47;;;15.40;99.90;;;;;;5073041;28;20443;-66
2021/09/10 01:54:45;;;;;;;17.10;15.40;;;15.30;99.90;;;;;;5073104;28;20550;-66
2021/09/10 01:57:12;;;;;;;17.43;15.10;;;15.30;99.90;;;;;;5073041;28;20546;-66
2021/09/10 01:59:43;;;;;;;18.20;16.40;;;15.30;99.90;;;;;;5072950;28;20941;-65
2021/09/10 02:02:10;;;;;;;17.70;16.03;;;15.30;99.90;;;;;;5072699;28;20442;-66
2021/09/10 02:04:37;;;;;;;19.43;17.03;;;15.20;99.90;;;;;;5073167;28;20463;-66
2021/09/10 02:07:04;;;;;;;16.80;14.97;;;15.20;99.90;;;;;;5072957;28;20948;-66
2021/09/10 02:09:32;;;;;;;18.13;16.47;;;15.20;99.90;;;;;;5073011;28;20484;-66
2021/09/10 02:11:59;;;;;;;25.13;17.43;;;15.20;99.90;;;;;;5072294;28;20451;-66
2021/09/10 02:14:27;;;;;;;16.63;15.03;;;15.20;99.90;;;;;;5072854;28;20613;-66
2021/09/10 02:16:55;;;;;;;18.00;16.20;;;15.20;99.90;;;;;;5072894;28;20848;-66
2021/09/10 02:19:22;;;;;;;18.10;16.40;;;15.20;99.90;;;;;;5072838;28;20447;-66
2021/09/10 02:21:49;;;;;;;17.13;15.33;;;15.30;99.90;;;;;;5072203;28;20810;-66
2021/09/10 02:24:16;;;;;;;17.60;15.97;;;15.40;99.90;;;;;;5072402;28;20554;-66
2021/09/10 02:26:43;;;;;;;15.97;14.37;;;15.40;99.90;;;;;;5072446;28;20447;-67
2021/09/10 02:29:10;;;;;;;16.40;14.80;;;15.40;99.90;;;;;;5072583;28;20501;-66
2021/09/10 02:31:37;;;;;;;18.57;16.57;;;15.30;99.90;;;;;;5072640;28;20962;-65
2021/09/10 02:34:05;;;;;;;17.50;15.90;;;15.30;99.90;;;;;;5072202;28;20976;-64
2021/09/10 02:36:34;;;;;;;18.33;16.53;;;15.30;99.90;;;;;;5072599;28;20435;-65
2021/09/10 02:39:01;;;;;;;16.63;15.17;;;15.30;99.90;;;;;;5072592;28;20518;-66
2021/09/10 02:41:28;;;;;;;21.47;16.30;;;15.20;99.90;;;;;;5072631;28;20912;-66
2021/09/10 02:43:55;;;;;;;17.10;15.50;;;15.30;99.90;;;;;;5072523;28;20463;-66
2021/09/10 02:46:22;;;;;;;20.00;17.50;;;15.30;99.90;;;;;;5072606;28;20435;-66
2021/09/10 02:48:48;;;;;;;18.37;16.40;;;15.40;99.90;;;;;;5072182;28;20833;-66
2021/09/10 02:51:16;;;;;;;17.40;15.67;;;15.40;99.90;;;;;;5072020;28;20447;-66
2021/09/10 02:53:43;;;;;;;17.30;15.60;;;15.50;99.90;;;;;;5071793;28;20453;-65
2021/09/10 02:56:10;;;;;;;22.67;16.97;;;15.40;99.90;;;;;;5071714;28;21202;-65
2021/09/10 02:58:37;;;;;;;17.30;15.70;;;15.50;99.90;;;;;;5071919;28;20443;-65
2021/09/10 03:01:04;;;;;;;18.00;16.27;;;15.50;99.90;;;;;;5071752;28;21104;-67
2021/09/10 03:03:31;;;;;;;18.50;16.73;;;15.50;99.90;;;;;;5071570;28;20520;-65
2021/09/10 03:05:58;;;;;;;18.40;16.60;;;15.50;99.90;;;;;;5072373;28;20878;-65
2021/09/10 03:08:26;;;;;;;18.30;16.50;;;15.40;99.90;;;;;;5072653;28;20828;-65
2021/09/10 03:10:53;;;;;;;20.27;15.23;;;15.50;99.90;;;;;;5071865;28;20446;-65
2021/09/10 03:13:20;;;;;;;17.57;15.77;;;15.50;99.90;;;;;;5071666;28;20447;-65
2021/09/10 03:15:47;;;;;;;16.60;15.00;;;15.60;99.90;;;;;;5071552;28;20447;-65
2021/09/10 03:18:14;;;;;;;16.87;15.30;;;15.60;99.90;;;;;;5071445;28;20443;-65
2021/09/10 03:20:43;;;;;;;16.77;15.00;;;15.70;99.90;;;;;;5071559;28;20439;-65
2021/09/10 03:23:09;;;;;;;16.97;15.17;;;15.70;99.90;;;;;;5070744;28;20537;-65
2021/09/10 03:25:38;;;;;;;18.33;15.93;;;15.80;99.90;;;;;;5071299;28;20471;-66
2021/09/10 03:28:05;;;;;;;16.70;14.80;;;15.80;99.90;;;;;;5070525;28;20534;-67
2021/09/10 03:30:32;;;;;;;16.50;15.00;;;16.00;99.90;;;;;;5071246;28;20490;-65
2021/09/10 03:32:59;;;;;;;15.67;14.00;;;15.90;99.90;;;;;;5070791;28;21036;-66
2021/09/10 03:35:26;;;;;;;17.03;15.23;;;15.90;99.90;;;;;;5070974;28;20470;-65
2021/09/10 03:37:52;;;;;;;17.50;15.00;;;15.90;99.90;;;;;;5071124;28;20534;-65
2021/09/10 03:40:19;;;;;;;16.50;13.87;;;15.90;99.90;;;;;;5071427;28;20531;-65
2021/09/10 03:42:48;;;;;;;17.53;15.83;;;15.90;99.90;;;;;;5070876;28;20454;-65
2021/09/10 03:45:15;;;;;;;15.50;14.00;;;15.80;99.90;;;;;;5071225;28;20470;-65
2021/09/10 03:47:41;;;;;;;15.33;13.73;;;15.80;99.90;;;;;;5071276;28;20453;-65
2021/09/10 03:50:09;;;;;;;16.37;14.77;;;15.70;99.90;;;;;;5070745;28;20992;-66
2021/09/10 03:52:36;;;;;;;16.03;14.43;;;15.70;99.90;;;;;;5070782;28;20478;-64
2021/09/10 03:55:03;;;;;;;15.67;14.10;;;15.70;99.90;;;;;;5070664;28;20471;-65
2021/09/10 03:57:30;;;;;;;16.20;14.60;;;15.60;99.90;;;;;;5071208;28;20473;-65
2021/09/10 03:59:58;;;;;;;16.07;14.47;;;15.60;99.90;;;;;;5070949;28;20446;-65
2021/09/10 04:02:25;;;;;;;16.60;15.00;;;15.50;99.90;;;;;;5070726;28;20447;-65
2021/09/10 04:04:52;;;;;;;18.20;15.40;;;15.60;99.90;;;;;;5070931;28;20478;-66
2021/09/10 04:07:18;;;;;;;17.10;15.37;;;15.60;99.90;;;;;;5071191;28;20453;-65
2021/09/10 04:09:45;;;;;;;16.47;14.97;;;15.60;99.90;;;;;;5070435;28;21309;-66
2021/09/10 04:12:12;;;;;;;17.00;15.33;;;15.50;99.90;;;;;;5070417;28;20443;-66
2021/09/10 04:14:39;;;;;;;18.40;14.87;;;15.50;99.90;;;;;;5070613;28;20471;-65
2021/09/10 04:17:07;;;;;;;16.80;15.10;;;15.40;99.90;;;;;;5070339;28;20455;-65
2021/09/10 04:19:34;;;;;;;16.70;14.90;;;15.50;99.90;;;;;;5070850;28;20443;-66
2021/09/10 04:22:01;;;;;;;16.03;14.43;;;15.50;99.90;;;;;;5069899;28;20461;-66
2021/09/10 04:24:27;;;;;;;16.87;15.20;;;15.60;99.90;;;;;;5070441;28;20466;-66
2021/09/10 04:26:54;;;;;;;16.40;14.83;;;15.50;99.90;;;;;;5070182;28;20546;-66
2021/09/10 04:29:21;;;;;;;17.73;15.53;;;15.60;99.90;;;;;;5070267;28;20582;-66
2021/09/10 04:31:48;;;;;;;16.23;14.83;;;15.60;99.90;;;;;;5069723;28;20793;-66
2021/09/10 04:34:16;;;;;;;17.00;15.30;;;15.60;99.90;;;;;;5070508;28;20473;-69
2021/09/10 04:36:43;;;;;;;16.37;14.77;;;15.50;99.90;;;;;;5070357;28;20453;-66
2021/09/10 04:39:10;;;;;;;16.47;14.97;;;15.50;99.90;;;;;;5069604;28;20851;-66
2021/09/10 04:41:37;;;;;;;15.43;13.80;;;15.40;99.90;;;;;;5069887;28;20465;-65
2021/09/10 04:44:04;;;;;;;16.87;14.90;;;15.30;99.90;;;;;;5070319;28;20463;-65
2021/09/10 04:46:31;;;;;;;18.00;14.93;;;15.40;99.90;;;;;;5070182;28;20818;-66
2021/09/10 04:48:58;;;;;;;16.93;15.23;;;15.40;99.90;;;;;;5069976;28;20877;-66
2021/09/10 04:51:28;;;;;;;18.60;15.30;;;15.40;99.90;;;;;;5069783;28;20863;-65
2021/09/10 04:53:56;;;;;;;17.13;15.37;;;15.40;99.90;;;;;;5069861;28;20454;-65
2021/09/10 04:56:23;;;;;;;20.20;16.37;;;15.40;99.90;;;;;;5070030;28;20474;-65
2021/09/10 04:58:50;;;;;;;17.60;15.77;;;15.40;99.90;;;;;;5069769;28;20443;-67
2021/09/10 05:01:17;;;;;;;16.70;14.83;;;15.40;99.90;;;;;;5069771;28;20464;-66
2021/09/10 05:03:44;;;;;;;18.10;16.20;;;15.40;99.90;;;;;;5069809;28;20450;-67
2021/09/10 05:06:11;;;;;;;17.87;16.00;;;15.40;99.90;;;;;;5069618;28;20466;-65
2021/09/10 05:08:39;;;;;;;18.33;16.53;;;15.40;99.90;;;;;;5069604;28;20542;-66
2021/09/10 05:11:06;;;;;;;24.73;17.10;;;15.40;99.90;;;;;;5069710;28;21016;-66
2021/09/10 05:13:38;;;;;;;16.83;15.23;;;15.50;99.90;;;;;;5069416;28;20530;-66
2021/09/10 05:16:05;;;;;;;18.97;17.17;;;15.50;99.90;;;;;;5069502;28;20455;-66
2021/09/10 05:18:32;;;;;;;16.07;14.57;;;15.50;99.90;;;;;;5069835;28;20451;-65
2021/09/10 05:20:59;;;;;;;17.37;15.67;;;15.60;99.90;;;;;;5069532;28;20530;-65
2021/09/10 05:23:26;;;;;;;17.60;15.60;;;15.70;99.90;;;;;;5069379;28;20461;-65
2021/09/10 05:25:54;;;;;;;18.90;16.20;;;15.60;99.90;;;;;;5069206;28;20451;-65
2021/09/10 05:28:21;;;;;;;17.80;15.90;;;15.60;99.90;;;;;;5069493;28;20457;-66
2021/09/10 05:30:49;;;;;;;18.10;16.33;;;15.60;99.90;;;;;;5071438;28;20476;-67
2021/09/10 05:33:16;;;;;;;18.63;16.73;;;15.60;99.90;;;;;;5084373;28;20477;-65
2021/09/10 05:35:43;;;;;;;18.80;16.47;;;15.60;99.90;;;;;;5089126;28;20472;-66
2021/09/10 05:38:10;;;;;;;17.27;15.50;;;15.70;99.90;;;;;;5089399;28;20541;-66
2021/09/10 05:40:37;;;;;;;17.07;15.47;;;15.80;99.90;;;;;;5079241;28;20437;-73
2021/09/10 05:43:05;;;;;;;18.00;16.10;;;15.80;99.90;;;;;;5076747;28;20435;-65
2021/09/10 05:45:32;;;;;;;18.40;16.13;;;15.90;99.90;;;;;;5069309;28;20566;-66
2021/09/10 05:47:59;;;;;;;21.40;16.07;;;15.90;99.90;;;;;;5068929;28;20453;-66
2021/09/10 05:50:26;;;;;;;20.53;15.87;;;16.10;99.90;;;;;;5069074;28;20488;-66
2021/09/10 05:52:53;;;;;;;18.27;16.37;;;16.10;99.90;;;;;;5072100;28;20453;-65
2021/09/10 05:55:19;;;;;;;22.20;17.73;;;16.10;99.90;;;;;;5072851;28;20466;-66
2021/09/10 05:57:46;;;;;;;18.17;16.40;;;16.20;99.90;;;;;;5072366;28;20455;-65
2021/09/10 06:00:15;;;;;;;18.13;16.40;;;16.20;99.90;;;;;;5072736;28;20465;-66
2021/09/10 06:02:41;;;;;;;18.10;15.60;;;16.20;99.90;;;;;;5072218;28;20932;-65
2021/09/10 06:05:09;;;;;;;18.17;16.27;;;16.20;99.90;;;;;;5070164;28;20485;-66
2021/09/10 06:07:36;;;;;;;17.20;15.50;;;16.20;99.90;;;;;;5077162;28;20445;-66
2021/09/10 06:10:03;;;;;;;19.27;17.27;;;16.30;99.90;;;;;;5075378;28;20474;-66
2021/09/10 06:12:30;;;;;;;20.63;17.10;;;16.40;99.90;;;;;;5080324;28;20454;-67
2021/09/10 06:14:57;;;;;;;17.10;15.40;;;16.40;99.90;;;;;;5085108;28;20982;-66
2021/09/10 06:17:25;;;;;;;17.93;16.10;;;16.50;99.90;;;;;;5081614;28;20472;-66
2021/09/10 06:19:52;;;;;;;15.57;14.07;;;16.60;99.90;;;;;;5083532;28;20604;-66
2021/09/10 06:22:18;;;;;;;17.97;15.77;;;16.70;99.90;;;;;;5079012;28;20454;-66
2021/09/10 06:24:45;;;;;;;17.10;15.40;;;16.70;99.90;;;;;;5091320;28;20458;-66
2021/09/10 06:27:12;;;;;;;17.57;15.20;;;16.90;99.90;;;;;;5091349;28;20434;-65
2021/09/10 06:29:39;;;;;;;17.23;15.43;;;17.00;99.90;;;;;;5092547;28;20468;-65
2021/09/10 06:32:06;;;;;;;17.10;15.40;;;17.10;99.90;;;;;;5088430;28;20453;-66
2021/09/10 06:34:35;;;;;;;17.50;15.03;;;17.20;99.90;;;;;;5088653;28;20476;-66
2021/09/10 06:37:01;;;;;;;17.07;15.27;;;17.10;99.90;;;;;;5091981;28;20449;-66
2021/09/10 06:39:28;;;;;;;19.13;15.77;;;17.20;99.90;;;;;;5088363;28;20970;-65
2021/09/10 06:41:56;;;;;;;15.60;14.10;;;17.20;99.90;;;;;;5088235;28;20451;-65
2021/09/10 06:44:23;;;;;;;15.73;14.33;;;17.20;99.90;;;;;;5084279;28;20468;-65
2021/09/10 06:46:50;;;;;;;18.70;16.80;;;17.30;99.90;;;;;;5092053;28;20458;-65
2021/09/10 06:49:17;;;;;;;18.87;16.87;;;17.30;99.90;;;;;;5089244;28;20464;-66
2021/09/10 06:51:45;;;;;;;18.87;16.87;;;17.40;99.90;;;;;;5082985;28;20479;-65
2021/09/10 06:54:12;;;;;;;19.60;17.67;;;17.60;99.90;;;;;;5079935;28;20463;-66
2021/09/10 06:56:39;;;;;;;18.30;16.50;;;17.80;99.90;;;;;;5091653;28;20442;-65
2021/09/10 06:59:05;;;;;;;17.47;15.77;;;18.00;99.90;;;;;;5088780;28;21045;-65
2021/09/10 07:01:35;;;;;;;17.83;16.13;;;18.20;99.90;;;;;;5079899;28;20434;-65
2021/09/10 07:04:01;;;;;;;26.77;16.63;;;18.40;99.90;;;;;;5080450;28;20470;-66
2021/09/10 07:06:30;;;;;;;18.03;16.27;;;18.60;99.90;;;;;;5087611;28;20529;-66
2021/09/10 07:08:58;;;;;;;19.00;16.73;;;18.80;99.90;;;;;;5089062;28;20457;-65
2021/09/10 07:11:25;;;;;;;16.57;15.00;;;18.90;99.90;;;;;;5087008;28;21014;-65
2021/09/10 07:13:51;;;;;;;16.10;14.50;;;19.00;99.90;;;;;;5087224;28;20458;-66
2021/09/10 07:16:18;;;;;;;16.30;14.53;;;19.10;99.90;;;;;;5074417;28;20465;-65
2021/09/10 07:18:45;;;;;;;15.43;13.93;;;19.30;99.90;;;;;;5090914;28;20446;-66
2021/09/10 07:21:12;;;;;;;17.07;15.47;;;19.40;99.90;;;;;;5088241;28;20820;-66
2021/09/10 07:23:39;;;;;;;14.87;13.37;;;19.50;99.90;;;;;;5085581;28;20457;-65
2021/09/10 07:26:07;;;;;;;14.43;13.03;;;19.50;99.90;;;;;;5086022;28;20458;-66
2021/09/10 07:28:35;;;;;;;14.17;12.87;;;19.70;99.90;;;;;;5088107;28;21007;-66
2021/09/10 07:31:02;;;;;;;13.07;11.87;;;19.80;99.90;;;;;;5083552;28;20473;-66
2021/09/10 07:33:29;;;;;;;14.20;12.70;;;19.80;99.90;;;;;;5090758;28;20815;-65
2021/09/10 07:35:56;;;;;;;13.27;11.97;;;19.90;99.90;;;;;;5090620;28;20531;-65
2021/09/10 07:38:22;;;;;;;13.57;12.27;;;20.10;99.90;;;;;;5087607;28;20451;-65
2021/09/10 07:40:49;;;;;;;13.03;11.17;;;20.10;99.90;;;;;;5086735;28;20863;-66
2021/09/10 07:43:18;;;;;;;13.30;12.10;;;20.20;99.90;;;;;;5089732;28;20968;-63
2021/09/10 07:45:44;;;;;;;12.40;11.20;;;20.40;99.90;;;;;;5084472;28;20476;-65
2021/09/10 07:48:11;;;;;;;12.00;10.90;;;20.50;99.90;;;;;;5079517;28;20482;-66
2021/09/10 07:50:38;;;;;;;12.00;10.90;;;20.80;99.90;;;;;;5090150;28;20854;-66
2021/09/10 07:53:05;;;;;;;13.60;12.30;;;20.90;99.90;;;;;;5085692;28;20438;-66
2021/09/10 07:55:32;;;;;;;12.47;11.30;;;21.00;99.90;;;;;;5077007;28;20462;-66
2021/09/10 07:57:59;;;;;;;12.33;11.13;;;21.20;99.90;;;;;;5080769;28;20474;-64
2021/09/10 08:00:27;;;;;;;12.17;10.93;;;21.30;99.90;;;;;;5078396;28;20792;-66
2021/09/10 08:02:54;;;;;;;11.37;10.37;;;21.60;99.90;;;;;;5077529;28;20626;-66
2021/09/10 08:05:22;;;;;;;11.30;10.20;;;21.80;99.90;;;;;;5078486;28;20540;-66
2021/09/10 08:07:49;;;;;;;11.87;10.80;;;22.00;99.90;;;;;;5077109;28;20526;-66
2021/09/10 08:10:17;;;;;;;12.03;10.50;;;22.20;99.90;;;;;;5080849;28;20505;-66
2021/09/10 08:12:45;;;;;;;11.70;10.50;;;22.40;99.90;;;;;;5089660;28;20442;-66
2021/09/10 08:15:15;;;;;;;10.83;9.77;;;22.40;99.90;;;;;;5083072;28;20545;-66
2021/09/10 08:17:43;;;;;;;11.10;10.00;;;22.60;99.90;;;;;;5070900;28;20447;-66
2021/09/10 08:20:12;;;;;;;11.07;9.97;;;22.90;99.90;;;;;;5085603;28;20529;-66
2021/09/10 08:22:39;;;;;;;10.53;9.27;;;23.10;99.90;;;;;;5076947;28;20461;-66
2021/09/10 08:25:09;;;;;;;11.57;10.57;;;23.30;99.90;;;;;;5080573;28;20565;-65
2021/09/10 08:27:36;;;;;;;13.10;10.10;;;23.60;99.90;;;;;;5082372;28;20451;-65
2021/09/10 08:30:04;;;;;;;11.63;10.43;;;23.80;99.90;;;;;;5086831;28;20477;-65
2021/09/10 08:32:31;;;;;;;10.20;9.20;;;24.00;99.90;;;;;;5088049;28;20481;-65
2021/09/10 08:34:59;;;;;;;10.90;9.80;;;24.30;99.90;;;;;;5088459;28;20464;-65
2021/09/10 08:37:27;;;;;;;9.90;9.10;;;24.70;99.90;;;;;;5088877;28;20458;-66
2021/09/10 08:39:54;;;;;;;10.80;9.33;;;25.10;99.90;;;;;;5089228;28;20803;-65
2021/09/10 08:42:21;;;;;;;15.13;9.40;;;25.40;99.90;;;;;;5088625;28;20450;-65
2021/09/10 08:44:48;;;;;;;10.77;9.30;;;25.60;99.90;;;;;;5088936;28;20580;-65
2021/09/10 08:47:15;;;;;;;10.13;9.17;;;25.90;99.90;;;;;;5088662;28;20521;-65
2021/09/10 08:49:45;;;;;;;10.83;9.50;;;26.00;99.90;;;;;;5089086;28;20452;-65
2021/09/10 08:52:13;;;;;;;9.43;8.53;;;26.10;99.90;;;;;;5088742;28;20497;-66
2021/09/10 08:54:40;;;;;;;8.80;8.00;;;25.90;99.90;;;;;;5090119;28;20484;-66
2021/09/10 08:57:07;;;;;;;10.10;9.00;;;25.90;99.90;;;;;;5086351;28;20490;-67
2021/09/10 08:59:34;;;;;;;9.67;8.77;;;25.80;99.90;;;;;;5068734;28;20948;-67
2021/09/10 09:02:01;;;;;;;12.67;9.47;;;25.70;99.90;;;;;;5068872;28;20441;-67
2021/09/10 09:04:31;;;;;;;9.27;8.37;;;25.70;99.90;;;;;;5068055;28;20995;-67
2021/09/10 09:07:00;;;;;;;7.93;7.33;;;25.60;99.90;;;;;;5068870;28;20443;-67
2021/09/10 09:09:40;;;;;;;8.70;7.90;;;25.20;99.90;;;;;;5068668;28;20443;-67
2021/09/10 09:12:18;;;;;;;8.03;7.23;;;24.60;99.90;;;;;;5068612;28;20573;-67
2021/09/10 09:14:46;;;;;;;8.40;7.37;;;23.90;99.90;;;;;;5069124;28;20468;-67
2021/09/10 09:17:21;;;;;;;8.67;7.80;;;24.00;99.90;;;;;;5068450;28;20548;-67
2021/09/10 09:20:12;;;;;;;8.50;7.60;;;24.40;99.90;;;;;;5068654;28;20475;-67
2021/09/10 09:22:53;;;;;;;8.70;7.90;;;24.70;99.90;;;;;;5068275;28;20458;-67
2021/09/10 09:25:23;;;;;;;8.20;7.43;;;25.00;99.90;;;;;;5067862;28;20470;-67
2021/09/10 09:27:50;;;;;;;8.13;7.00;;;25.00;99.90;;;;;;5078287;28;20541;-67
2021/09/10 09:30:35;;;;;;;9.07;8.17;;;25.10;99.90;;;;;;5080939;28;20827;-67
2021/09/10 09:33:02;;;;;;;8.50;7.80;;;25.30;99.90;;;;;;5081526;28;20439;-68
2021/09/10 09:35:30;;;;;;;8.00;7.20;;;25.80;99.90;;;;;;5076784;28;20540;-66
2021/09/10 09:37:57;;;;;;;8.00;7.30;;;25.70;99.90;;;;;;5079435;28;20447;-67
2021/09/10 09:40:32;;;;;;;8.47;7.50;;;26.00;99.90;;;;;;5079391;28;20546;-67
2021/09/10 09:42:59;;;;;;;7.80;7.10;;;26.70;99.90;;;;;;5080285;28;20530;-67
2021/09/10 09:45:26;;;;;;;10.10;8.90;;;26.90;99.90;;;;;;5092936;28;20465;-66
2021/09/10 09:47:53;;;;;;;8.97;8.17;;;26.90;99.90;;;;;;5093308;28;20453;-67
2021/09/10 09:50:23;;;;;;;9.13;7.83;;;26.80;99.90;;;;;;5093355;28;20445;-67
2021/09/10 09:52:51;;;;;;;9.60;8.10;;;26.40;99.90;;;;;;5093271;28;20482;-66
2021/09/10 09:55:19;;;;;;;9.53;8.23;;;26.50;99.90;;;;;;5092877;28;20557;-67
2021/09/10 09:57:47;;;;;;;9.33;8.20;;;26.70;99.90;;;;;;5093091;28;21110;-66
2021/09/10 10:00:16;;;;;;;9.90;8.90;;;26.60;99.90;;;;;;5088980;28;20454;-67
2021/09/10 10:02:42;;;;;;;8.47;7.67;;;26.70;99.90;;;;;;5092680;28;20541;-67
2021/09/10 10:05:10;;;;;;;9.60;8.70;;;26.90;99.90;;;;;;5092495;28;20561;-68
2021/09/10 10:07:43;;;;;;;7.93;7.17;;;27.00;99.90;;;;;;5084087;28;20531;-69
2021/09/10 10:10:13;;;;;;;9.50;8.20;;;27.50;99.90;;;;;;5090004;28;20851;-66
2021/09/10 10:12:42;;;;;;;9.70;8.67;;;28.10;99.70;;;;;;5091915;28;21015;-66
2021/09/10 10:15:24;;;;;;;8.93;8.03;;;28.10;99.20;;;;;;5092515;28;20478;-67
2021/09/10 10:17:51;;;;;;;8.73;7.57;;;27.60;98.70;;;;;;5092485;28;20546;-67
2021/09/10 10:20:53;;;;;;;9.40;8.50;;;27.40;99.90;;;;;;5092659;28;20442;-66
2021/09/10 10:23:53;;;;;;;9.23;8.43;;;27.20;99.30;;;;;;5083624;28;20825;-67
2021/09/10 10:26:21;;;;;;;8.97;8.17;;;26.70;99.90;;;;;;5083622;28;20865;-66
2021/09/10 10:28:50;;;;;;;8.70;7.87;;;26.40;99.90;;;;;;5082310;28;20454;-67
2021/09/10 10:31:39;;;;;;;9.70;8.70;;;26.50;99.90;;;;;;5083489;28;20568;-66
2021/09/10 10:34:07;;;;;;;11.50;9.00;;;26.20;99.90;;;;;;5082898;28;20477;-66
2021/09/10 10:36:35;;;;;;;8.67;7.80;;;25.60;99.90;;;;;;5082502;28;20529;-67
2021/09/10 10:39:27;;;;;;;10.90;9.80;;;25.70;99.90;;;;;;5082465;28;20929;-66
2021/09/10 10:41:58;;;;;;;9.10;8.30;;;26.00;99.90;;;;;;5090462;28;20499;-66
2021/09/10 10:44:58;;;;;;;8.83;8.03;;;26.10;99.90;;;;;;5090858;28;21062;-66
2021/09/10 10:47:35;;;;;;;9.03;8.23;;;26.50;99.90;;;;;;5092327;28;20456;-66
2021/09/10 10:50:03;;;;;;;8.63;7.83;;;26.20;99.90;;;;;;5092678;28;20520;-66
2021/09/10 10:52:35;;;;;;;8.60;7.80;;;26.40;99.90;;;;;;5091204;28;20569;-66
2021/09/10 10:55:30;;;;;;;10.37;8.10;;;26.60;99.40;;;;;;5091842;28;20470;-66
2021/09/10 10:58:19;;;;;;;8.23;7.43;;;26.80;99.90;;;;;;5091695;28;20439;-66
2021/09/10 11:00:48;;;;;;;8.67;7.57;;;27.30;98.00;;;;;;5091416;28;20940;-67
2021/09/10 11:03:53;;;;;;;8.53;7.80;;;27.60;97.80;;;;;;5085293;28;20470;-66
2021/09/10 11:06:37;;;;;;;7.63;6.93;;;27.30;98.20;;;;;;5014372;28;20464;-66
2021/09/10 11:09:10;;;;;;;9.67;8.77;;;27.20;99.10;;;;;;5072436;28;20512;-67
2021/09/10 11:11:37;;;;;;;10.37;9.30;;;27.30;98.30;;;;;;5075108;28;20479;-67
2021/09/10 11:14:08;;;;;;;8.20;7.50;;;27.30;97.70;;;;;;5078122;28;20467;-67
2021/09/10 11:16:35;;;;;;;10.43;8.00;;;27.50;97.30;;;;;;5077092;28;20470;-67
2021/09/10 11:19:03;;;;;;;7.57;6.87;;;28.20;96.60;;;;;;5074882;28;20458;-67
2021/09/10 11:21:31;;;;;;;8.43;7.73;;;28.40;96.60;;;;;;5083398;28;20446;-67
2021/09/10 11:24:11;;;;;;;8.80;7.00;;;28.20;96.70;;;;;;5084861;28;20557;-67
2021/09/10 11:26:39;;;;;;;8.07;7.37;;;28.50;96.00;;;;;;5091058;28;20444;-67
2021/09/10 11:29:13;;;;;;;8.30;7.43;;;29.30;95.00;;;;;;5075178;28;20554;-67
2021/09/10 11:31:40;;;;;;;7.93;7.13;;;29.40;94.80;;;;;;5081058;28;20485;-67
2021/09/10 11:34:09;;;;;;;8.10;7.40;;;29.30;95.00;;;;;;5089140;28;20458;-67
2021/09/10 11:36:36;;;;;;;8.33;7.40;;;28.90;95.60;;;;;;5073458;28;20462;-67
2021/09/10 11:39:06;;;;;;;8.60;7.63;;;28.60;95.50;;;;;;5087099;28;20539;-66
2021/09/10 11:41:33;;;;;;;7.80;7.20;;;28.10;95.70;;;;;;5082600;28;20454;-67
2021/09/10 11:44:09;;;;;;;7.50;6.83;;;28.10;96.90;;;;;;5084553;28;20462;-67
2021/09/10 11:46:36;;;;;;;8.10;7.40;;;29.00;95.40;;;;;;5089391;28;20449;-67
2021/09/10 11:49:03;;;;;;;8.13;7.33;;;29.10;93.60;;;;;;5076214;28;20538;-67
2021/09/10 11:51:40;;;;;;;7.77;7.13;;;29.00;94.20;;;;;;5087589;28;20568;-67
2021/09/10 11:54:13;;;;;;;8.60;7.63;;;28.60;94.90;;;;;;5088336;28;20462;-67
2021/09/10 11:56:40;;;;;;;8.23;7.53;;;28.50;95.10;;;;;;5077137;28;20518;-67
2021/09/10 11:59:17;;;;;;;8.17;7.53;;;29.20;95.60;;;;;;5086321;28;20446;-69
2021/09/10 12:01:44;;;;;;;8.00;7.30;;;29.40;94.20;;;;;;5080082;28;20450;-67
2021/09/10 12:04:14;;;;;;;8.20;7.40;;;29.00;94.10;;;;;;5086993;28;20474;-67
2021/09/10 12:06:49;;;;;;;8.03;7.13;;;28.90;93.90;;;;;;5088459;28;20458;-66
2021/09/10 12:09:18;;;;;;;8.30;7.60;;;29.70;93.60;;;;;;5087823;28;20445;-67
2021/09/10 12:12:16;;;;;;;13.30;8.47;;;31.20;94.00;;;;;;5083669;28;20876;-67
2021/09/10 12:14:46;;;;;;;7.30;6.70;;;32.60;91.20;;;;;;5083679;28;20466;-68
2021/09/10 12:17:29;;;;;;;6.93;6.43;;;33.10;90.00;;;;;;5088272;28;20947;-67
2021/09/10 12:20:02;;;;;;;8.30;6.90;;;34.00;84.50;;;;;;5079252;28;21137;-68
2021/09/10 12:22:53;;;;;;;8.10;7.43;;;34.50;81.20;;;;;;5068118;28;20881;-67
2021/09/10 12:25:46;;;;;;;8.03;6.60;;;34.20;79.90;;;;;;5068007;28;20513;-66
2021/09/10 12:28:19;;;;;;;7.47;6.77;;;33.30;82.90;;;;;;5064411;28;20466;-67
2021/09/10 12:30:48;;;;;;;8.13;7.43;;;33.60;83.80;;;;;;5068047;28;21059;-67
2021/09/10 12:33:18;;;;;;;8.73;7.90;;;33.70;78.20;;;;;;5082661;28;20484;-66
2021/09/10 12:35:45;;;;;;;8.00;6.70;;;32.80;81.30;;;;;;5085109;28;20459;-69
2021/09/10 12:38:16;;;;;;;13.00;7.70;;;31.60;84.20;;;;;;5077794;28;20885;-66
2021/09/10 12:40:45;;;;;;;8.67;7.97;;;29.80;88.30;;;;;;5070258;28;20443;-66
2021/09/10 12:43:16;;;;;;;8.50;7.80;;;28.80;92.20;;;;;;5067605;28;20521;-66